Terminal Aerodrome Forecast
Issued by NWS Wichita, KS

Home | Current Version | Previous Version | Text Only | Print | Product List | Glossary Off
Versions: 1 2 3 4 5 6 7 8 9 10 11 12 13 14 15 16 17

000
FTUS43 KICT 290200 AAB
TAFICT
TAF AMD
KICT 290200Z 2902/2924 12006KT P6SM VCSH SCT050 BKN100
     FM290400 34007KT P6SM VCSH SCT040 BKN080
     FM290600 35010KT P6SM SCT100
     FM291500 36012KT P6SM SCT035=

USA.gov is the U.S. government's official web portal to all federal, state and local government web resources and services.